M I D A S
Marine Information and Data Acquisition System
Tripno 1746 of the Zeeleeuw from 2009-08-05 07:12:31 to 2009-08-05 14:17:09
Back to CruiseResearch ActivitiesStationsMapUnderway DataData graphs

EquipmentUnitsComments
TimeDGPSUTC
LatitudeDGPSDM.mWGS84
LongitudeDGPSDM.mWGS84
SpeedMeteo Stationm/sRelative wind speed
DirectionMeteo StationdegRelative wind direction
TemperatureMeteo Stationdeg CelciusAir temperature
PressureMeteo StationPaAtmospheric pressure
HumidityMeteo Station%Relative humidity
Missing or incorrect values are displayed as -999
Metereological data collected by the RV Zeeleeuw from 2009-08-05 06:03:10 to 2009-08-05 15:33:31
Time Latitude Longitude Speed Direction Temperature Pressure Humidity
2009-08-05 06:04 51°13.661 2°55.959 2.3 342 19 101910 46
2009-08-05 06:05 51°13.662 2°55.96 2.5 352 19 101910 47
2009-08-05 06:06 51°13.662 2°55.96 3.4 335 19.1 101910 46
2009-08-05 06:07 51°13.662 2°55.96 3.8 330 19.1 101910 46
2009-08-05 06:08 51°13.662 2°55.959 2.9 343 19.2 101910 46
2009-08-05 06:09 51°13.662 2°55.959 2.6 343 19.2 101900 47
2009-08-05 06:10 51°13.662 2°55.959 3 339 19.2 101900 46
2009-08-05 06:11 51°13.662 2°55.959 3.7 335 19.3 101900 47
2009-08-05 06:12 51°13.662 2°55.959 3.5 343 19.4 101900 46
2009-08-05 06:13 51°13.662 2°55.959 3.6 342 19.4 101900 46
2009-08-05 06:14 51°13.662 2°55.959 3.7 350 19.4 101900 45
2009-08-05 06:15 51°13.662 2°55.96 2.5 341 19.5 101890 46
2009-08-05 06:16 51°13.662 2°55.96 3.3 344 19.6 101900 46
2009-08-05 06:17 51°13.662 2°55.961 4.4 350 19.7 101890 46
2009-08-05 06:18 51°13.662 2°55.961 4.5 342 19.7 101890 46
2009-08-05 06:19 51°13.663 2°55.961 3.7 342 19.7 101900 46
2009-08-05 06:20 51°13.663 2°55.96 2.7 340 19.8 101900 45
2009-08-05 06:21 51°13.663 2°55.96 4.3 357 19.8 101900 45
2009-08-05 06:22 51°13.663 2°55.959 3.2 345 19.9 101900 45
2009-08-05 06:23 51°13.663 2°55.959 2.7 3 19.9 101900 44
2009-08-05 06:24 51°13.663 2°55.959 3.4 343 20 101900 45
2009-08-05 06:25 51°13.663 2°55.959 3 354 20.1 101900 44
2009-08-05 06:26 51°13.664 2°55.96 4.4 346 20.1 101900 44
2009-08-05 06:27 51°13.663 2°55.959 4.6 352 20.2 101900 44
2009-08-05 06:28 51°13.663 2°55.959 2.3 346 20.2 101900 44
2009-08-05 06:29 51°13.663 2°55.959 4.6 350 20.2 101900 44
2009-08-05 06:30 51°13.663 2°55.959 4.7 354 20.3 101900 44
2009-08-05 06:31 51°13.663 2°55.959 4.7 353 20.3 101900 43
2009-08-05 06:32 51°13.663 2°55.959 3.3 338 20.3 101900 44
2009-08-05 06:33 51°13.663 2°55.959 2.8 349 20.3 101900 43
2009-08-05 06:34 51°13.663 2°55.958 3.8 350 20.3 101900 44
2009-08-05 06:35 51°13.663 2°55.958 2.9 357 20.4 101900 45
2009-08-05 06:36 51°13.663 2°55.958 3.3 349 20.4 101890 44
2009-08-05 06:37 51°13.663 2°55.959 3.7 343 20.5 101890 45
2009-08-05 06:38 51°13.662 2°55.959 3.2 342 20.5 101890 45
2009-08-05 06:39 51°13.663 2°55.959 3.6 345 20.5 101890 44
2009-08-05 06:40 51°13.664 2°55.959 4.2 340 20.5 101890 43
2009-08-05 06:41 51°13.663 2°55.959 -999 -999 -999 -999 -999
2009-08-05 06:42 51°13.665 2°55.959 2.7 350 20.5 101890 44
2009-08-05 06:43 51°13.663 2°55.959 3.1 349 20.5 101890 44
2009-08-05 06:44 51°13.663 2°55.959 3.3 339 20.5 101890 44
2009-08-05 06:45 51°13.663 2°55.959 4.9 341 20.6 101890 45
2009-08-05 06:46 51°13.663 2°55.959 3.9 353 20.7 101890 44
2009-08-05 06:47 51°13.663 2°55.959 3.1 344 20.7 101890 44
2009-08-05 06:48 51°13.663 2°55.959 2.7 346 20.8 101890 44
2009-08-05 06:49 51°13.663 2°55.959 3.4 332 20.9 101890 45
2009-08-05 06:50 51°13.663 2°55.959 4.9 346 20.9 101890 44
2009-08-05 06:51 51°13.662 2°55.96 5.6 345 20.9 101890 43
2009-08-05 06:52 51°13.663 2°55.96 3.7 354 20.9 101890 43
2009-08-05 06:53 51°13.663 2°55.96 4.4 335 21 101890 43
2009-08-05 06:54 51°13.664 2°55.959 3.6 341 21.1 101890 44
2009-08-05 06:55 51°13.663 2°55.959 2.8 343 21.2 101890 44
2009-08-05 06:56 51°13.663 2°55.959 4.3 339 21.3 101890 44
2009-08-05 06:57 51°13.663 2°55.959 3.3 349 21.3 101890 43
2009-08-05 06:58 51°13.663 2°55.959 3.7 341 21.4 101890 44
2009-08-05 06:59 51°13.662 2°55.959 3.4 359 21.4 101890 43
2009-08-05 07:00 51°13.663 2°55.959 3.6 346 21.4 101890 43
2009-08-05 07:01 51°13.664 2°55.959 3.6 346 21.5 101890 43
2009-08-05 07:02 51°13.662 2°55.959 3.3 346 21.5 101890 43
2009-08-05 07:03 51°13.663 2°55.96 3.7 347 21.5 101900 42
2009-08-05 07:04 51°13.663 2°55.96 4.3 345 21.5 101900 44
2009-08-05 07:05 51°13.663 2°55.96 4.2 342 21.6 101900 43
2009-08-05 07:06 51°13.662 2°55.959 4.1 338 21.6 101900 43
2009-08-05 07:07 51°13.662 2°55.959 3.5 352 21.6 101900 43
2009-08-05 07:08 51°13.665 2°55.947 2.6 357 21.5 101900 44
2009-08-05 07:09 51°13.685 2°55.871 3.8 13 21.6 101900 44
2009-08-05 07:10 51°13.695 2°55.787 4.6 28 21.6 101900 44
2009-08-05 07:11 51°13.688 2°55.734 2.6 36 21.6 101900 43
2009-08-05 07:12 51°13.704 2°55.739 2.8 52 21.7 101900 44
2009-08-05 07:13 51°13.743 2°55.716 2.9 60 21.7 101900 43
2009-08-05 07:14 51°13.816 2°55.646 1 56 21.8 101900 43
2009-08-05 07:15 51°13.92 2°55.562 2.1 59 21.8 101900 43
2009-08-05 07:16 51°14.04 2°55.468 1.4 303 21.9 101900 43
2009-08-05 07:17 51°14.162 2°55.368 1.7 301 22 101900 43
2009-08-05 07:18 51°14.268 2°55.228 2.3 303 22.1 101900 43
2009-08-05 07:19 51°14.367 2°55.035 3 308 22.1 101900 42
2009-08-05 07:20 51°14.486 2°54.816 3 302 22.1 101900 42
2009-08-05 07:21 51°14.646 2°54.683 0.9 300 22.1 101900 43
2009-08-05 07:22 51°14.821 2°54.619 0.6 56 22.2 101900 43
2009-08-05 07:23 51°14.998 2°54.556 1.3 52 22.2 101900 43
2009-08-05 07:24 51°15.17 2°54.494 1.4 50 22.3 101900 43
2009-08-05 07:25 51°15.344 2°54.436 1.1 301 22.4 101900 43
2009-08-05 07:26 51°15.519 2°54.384 0.8 24 22.5 101900 43
2009-08-05 07:27 51°15.665 2°54.367 0.4 28 22.6 101900 43
2009-08-05 07:28 51°15.787 2°54.369 -999 28 22.7 101900 44
2009-08-05 07:29 51°15.878 2°54.454 3.6 7 22.7 101910 44
2009-08-05 07:30 51°15.906 2°54.633 8.2 356 22.3 101900 46
2009-08-05 07:31 51°15.907 2°54.897 8 350 22 101880 46
2009-08-05 07:32 51°15.912 2°55.172 7.7 359 21.8 101880 45
2009-08-05 07:33 51°15.926 2°55.443 8 357 21.7 101880 45
2009-08-05 07:34 51°15.947 2°55.712 8.2 359 21.7 101880 46
2009-08-05 07:35 51°15.97 2°55.98 8.2 1 21.7 101880 45
2009-08-05 07:36 51°16.008 2°56.242 8.9 357 21.7 101880 46
2009-08-05 07:37 51°16.081 2°56.484 5.5 360 21.8 101890 45
2009-08-05 07:38 51°16.165 2°56.72 6 360 21.7 101890 46
2009-08-05 07:39 51°16.233 2°56.927 5.5 10 21.8 101890 44
2009-08-05 07:40 51°16.268 2°57.057 4.6 14 21.9 101890 46
2009-08-05 07:41 51°16.338 2°57.24 6.1 359 21.9 101890 45
2009-08-05 07:42 51°16.423 2°57.475 6.8 3 22 101880 45
2009-08-05 07:43 51°16.509 2°57.717 6.8 358 22 101890 46
2009-08-05 07:44 51°16.593 2°57.959 5.6 3 22.1 101880 44
2009-08-05 07:45 51°16.675 2°58.199 6.5 1 22.1 101880 44
2009-08-05 07:46 51°16.757 2°58.438 6.8 4 22.1 101880 44
2009-08-05 07:47 51°16.838 2°58.678 6.3 5 22.2 101890 46
2009-08-05 07:48 51°16.918 2°58.92 6.3 2 22.2 101890 44
2009-08-05 07:49 51°16.999 2°59.16 6.5 358 22.2 101890 46
2009-08-05 07:50 51°17.081 2°59.399 6.2 2 22.2 101890 45
2009-08-05 07:51 51°17.162 2°59.637 5.8 7 22.2 101890 43
2009-08-05 07:52 51°17.243 2°59.877 5.5 8 22.3 101900 45
2009-08-05 07:53 51°17.323 3°0.118 5.7 2 22.3 101900 45
2009-08-05 07:54 51°17.404 3°0.36 4.9 1 22.3 101900 44
2009-08-05 07:55 51°17.489 3°0.6 6.3 -999 22.3 101890 45
2009-08-05 07:56 51°17.579 3°0.83 4.8 7 22.3 101900 45
2009-08-05 07:57 51°17.672 3°1.056 6.4 7 22.3 101900 45
2009-08-05 07:58 51°17.762 3°1.285 4.9 355 22.3 101900 44
2009-08-05 07:59 51°17.853 3°1.509 5.9 7 22.3 101900 46
2009-08-05 08:00 51°17.944 3°1.732 6.8 8 22.3 101890 44
2009-08-05 08:01 51°18.032 3°1.96 5.5 1 22.5 101900 45
2009-08-05 08:02 51°18.116 3°2.193 6.1 -999 22.4 101910 46
2009-08-05 08:03 51°18.203 3°2.426 6.4 359 22.4 101900 44
2009-08-05 08:04 51°18.29 3°2.658 6 5 22.4 101900 43
2009-08-05 08:05 51°18.376 3°2.894 6.6 359 22.4 101900 45
2009-08-05 08:06 51°18.467 3°3.127 4.4 5 22.4 101910 45
2009-08-05 08:07 51°18.573 3°3.342 6.1 9 22.4 101900 42
2009-08-05 08:08 51°18.676 3°3.546 4 5 22.6 101910 44
2009-08-05 08:09 51°18.776 3°3.748 4.6 2 22.6 101910 45
2009-08-05 08:10 51°18.877 3°3.95 5.4 -999 22.6 101910 45
2009-08-05 08:11 51°18.975 3°4.145 4.8 6 22.5 101900 44
2009-08-05 08:12 51°19.078 3°4.23 2.8 53 22.5 101910 45
2009-08-05 08:13 51°19.183 3°4.184 0.7 55 22.6 101910 44
2009-08-05 08:14 51°19.32 3°4.107 1.2 303 22.7 101910 44
2009-08-05 08:15 51°19.421 3°3.922 5.3 307 23 101910 45
2009-08-05 08:16 51°19.446 3°3.637 6.8 304 23.1 101910 45
2009-08-05 08:17 51°19.415 3°3.322 7.9 302 23.1 101900 44
2009-08-05 08:18 51°19.335 3°3.022 10.7 305 23.1 101880 44
2009-08-05 08:19 51°19.257 3°2.718 11.2 306 23 101890 45
2009-08-05 08:20 51°19.171 3°2.418 10.8 305 23 101890 44
2009-08-05 08:21 51°19.088 3°2.117 9.2 306 22.9 101890 45
2009-08-05 08:22 51°19.006 3°1.815 9 303 22.8 101890 46
2009-08-05 08:23 51°18.923 3°1.514 9.2 306 22.7 101880 45
2009-08-05 08:24 51°18.853 3°1.207 10 305 22.7 101890 43
2009-08-05 08:25 51°18.789 3°0.896 10.6 306 22.7 101890 45
2009-08-05 08:26 51°18.725 3°0.585 10.4 305 22.7 101890 46
2009-08-05 08:27 51°18.663 3°0.269 8.3 308 22.6 101880 46
2009-08-05 08:28 51°18.597 2°59.954 10.2 302 22.6 101890 47
2009-08-05 08:29 51°18.519 2°59.646 9.8 306 22.6 101880 45
2009-08-05 08:30 51°18.442 2°59.335 10.2 301 22.7 101880 46
2009-08-05 08:31 51°18.364 2°59.023 11.1 308 22.8 101880 46
2009-08-05 08:32 51°18.286 2°58.709 11.3 308 22.8 101880 46
2009-08-05 08:33 51°18.197 2°58.404 11.8 301 22.7 101880 44
2009-08-05 08:34 51°18.1 2°58.104 10.1 303 22.8 101880 44
2009-08-05 08:35 51°18.005 2°57.806 11.3 302 22.8 101880 46
2009-08-05 08:36 51°17.91 2°57.509 13.1 305 22.6 101880 47
2009-08-05 08:37 51°17.817 2°57.218 10.2 309 22.6 101880 46
2009-08-05 08:38 51°17.724 2°56.93 10.7 301 22.6 101880 47
2009-08-05 08:39 51°17.636 2°56.634 11.2 304 22.5 101880 47
2009-08-05 08:40 51°17.559 2°56.325 9.9 305 22.4 101880 47
2009-08-05 08:41 51°17.481 2°56.016 11.9 305 22.3 101870 46
2009-08-05 08:42 51°17.401 2°55.708 10.4 307 22.3 101870 46
2009-08-05 08:43 51°17.32 2°55.403 10.4 305 22.3 101870 45
2009-08-05 08:44 51°17.238 2°55.106 8.6 306 22.3 101880 46
2009-08-05 08:45 51°17.158 2°54.811 10.3 310 22.2 101880 48
2009-08-05 08:46 51°17.079 2°54.516 11.6 306 22.2 101870 45
2009-08-05 08:47 51°16.998 2°54.226 8.8 301 22.2 101870 44
2009-08-05 08:48 51°16.923 2°53.931 8.4 301 22.2 101880 47
2009-08-05 08:49 51°16.886 2°53.625 10.3 307 22.1 101880 47
2009-08-05 08:50 51°16.903 2°53.32 8.8 302 22.1 101890 47
2009-08-05 08:51 51°16.98 2°53.067 3.4 307 22 101890 47
2009-08-05 08:52 51°17.142 2°52.97 1 303 22 101900 47
2009-08-05 08:53 51°17.313 2°52.998 1.7 6 22 101900 47
2009-08-05 08:54 51°17.48 2°53.08 2.6 9 22 101900 48
2009-08-05 08:55 51°17.638 2°53.197 3.1 3 21.9 101900 48
2009-08-05 08:56 51°17.788 2°53.336 3.4 2 21.8 101900 48
2009-08-05 08:57 51°17.915 2°53.523 4.4 1 21.7 101900 49
2009-08-05 08:58 51°18.011 2°53.752 5.1 -999 21.6 101900 50
2009-08-05 08:59 51°18.1 2°53.984 5.4 3 21.6 101890 50
2009-08-05 09:00 51°18.19 2°54.212 5 357 21.6 101890 48
2009-08-05 09:01 51°18.281 2°54.439 5.3 355 21.6 101900 51
2009-08-05 09:02 51°18.375 2°54.664 5.9 1 21.5 101900 50
2009-08-05 09:03 51°18.466 2°54.894 5.9 360 21.5 101900 51
2009-08-05 09:04 51°18.557 2°55.126 5.6 2 21.5 101900 51
2009-08-05 09:05 51°18.65 2°55.356 5.9 360 21.5 101900 49
2009-08-05 09:06 51°18.745 2°55.58 6 358 21.6 101900 50
2009-08-05 09:07 51°18.831 2°55.812 5.9 359 21.6 101890 51
2009-08-05 09:08 51°18.914 2°56.049 6.1 358 21.6 101900 50
2009-08-05 09:09 51°18.99 2°56.293 6.5 5 21.6 101890 49
2009-08-05 09:10 51°19.064 2°56.537 6.3 1 21.7 101890 48
2009-08-05 09:11 51°19.136 2°56.784 6.1 1 21.7 101890 49
2009-08-05 09:12 51°19.202 2°57.035 6.6 359 21.7 101900 50
2009-08-05 09:13 51°19.266 2°57.289 6.4 1 21.7 101900 50
2009-08-05 09:14 51°19.335 2°57.539 6.9 357 21.7 101900 50
2009-08-05 09:15 51°19.401 2°57.792 6.6 359 21.7 101900 51
2009-08-05 09:16 51°19.468 2°58.044 6.4 1 21.7 101900 49
2009-08-05 09:17 51°19.539 2°58.296 6.2 358 21.7 101900 50
2009-08-05 09:18 51°19.608 2°58.55 6.3 358 21.7 101900 51
2009-08-05 09:19 51°19.675 2°58.806 6.9 358 21.6 101900 50
2009-08-05 09:20 51°19.743 2°59.062 6.8 -999 21.7 101900 51
2009-08-05 09:21 51°19.814 2°59.317 5.9 2 21.7 101900 50
2009-08-05 09:22 51°19.884 2°59.573 6.2 2 21.7 101900 49
2009-08-05 09:23 51°19.954 2°59.829 5.3 2 21.8 101900 47
2009-08-05 09:24 51°20.025 3°0.084 6.5 358 21.9 101900 48
2009-08-05 09:25 51°20.095 3°0.342 6.6 357 21.8 101900 50
2009-08-05 09:26 51°20.166 3°0.6 6.1 356 21.8 101900 50
2009-08-05 09:27 51°20.235 3°0.856 7.1 356 21.8 101900 50
2009-08-05 09:28 51°20.305 3°1.112 6.8 357 21.8 101900 50
2009-08-05 09:29 51°20.375 3°1.369 7 359 21.8 101900 49
2009-08-05 09:30 51°20.446 3°1.626 6.4 2 21.8 101910 48
2009-08-05 09:31 51°20.517 3°1.884 6.2 -999 21.9 101900 49
2009-08-05 09:32 51°20.589 3°2.143 6.3 360 22 101910 47
2009-08-05 09:33 51°20.661 3°2.402 6.4 356 22.1 101910 48
2009-08-05 09:34 51°20.734 3°2.661 5.7 350 22 101910 50
2009-08-05 09:35 51°20.791 3°2.931 6.8 349 21.9 101910 50
2009-08-05 09:36 51°20.826 3°3.212 8.1 353 21.8 101910 50
2009-08-05 09:37 51°20.845 3°3.5 9.8 353 21.8 101900 48
2009-08-05 09:38 51°20.854 3°3.789 8.7 353 22 101900 48
2009-08-05 09:39 51°20.862 3°4.077 8.8 351 22 101900 48
2009-08-05 09:40 51°20.879 3°4.36 8.1 350 22.1 101910 48
2009-08-05 09:41 51°20.899 3°4.646 9.7 351 22 101910 48
2009-08-05 09:42 51°20.922 3°4.933 8.4 355 21.9 101900 48
2009-08-05 09:43 51°20.945 3°5.22 7.7 352 22 101910 49
2009-08-05 09:44 51°20.969 3°5.507 8.4 352 22 101910 49
2009-08-05 09:45 51°20.993 3°5.798 8.7 352 21.9 101910 49
2009-08-05 09:46 51°21.019 3°6.088 8.4 354 21.9 101900 47
2009-08-05 09:47 51°21.04 3°6.376 7.6 354 22.1 101910 47
2009-08-05 09:48 51°21.057 3°6.664 7.5 353 22.1 101910 46
2009-08-05 09:49 51°21.067 3°6.954 6.6 351 22.2 101920 48
2009-08-05 09:50 51°21.068 3°7.246 7.8 352 22.2 101920 47
2009-08-05 09:51 51°21.036 3°7.532 9.4 348 22.2 101910 45
2009-08-05 09:52 51°20.972 3°7.788 8.3 348 22.4 101910 46
2009-08-05 09:53 51°20.938 3°7.929 5.2 12 22.5 101920 46
2009-08-05 09:54 51°20.966 3°7.993 2.8 53 22.5 101920 45
2009-08-05 09:55 51°21.006 3°7.982 2.8 53 22.6 101930 45
2009-08-05 09:56 51°21.062 3°7.96 1.4 60 22.6 101930 44
2009-08-05 09:57 51°21.125 3°7.975 2.4 35 22.8 101930 44
2009-08-05 09:58 51°21.171 3°8.027 3.1 35 22.9 101920 45
2009-08-05 09:59 51°21.208 3°8.094 3.5 28 22.9 101920 45
2009-08-05 10:00 51°21.239 3°8.169 3.5 25 22.8 101920 44
2009-08-05 10:01 51°21.263 3°8.25 3.8 26 22.8 101920 47
2009-08-05 10:02 51°21.286 3°8.334 3.4 19 22.7 101920 46
2009-08-05 10:03 51°21.307 3°8.418 3.5 23 22.7 101920 45
2009-08-05 10:04 51°21.328 3°8.502 3.3 24 22.7 101920 46
2009-08-05 10:05 51°21.355 3°8.582 3.8 24 22.7 101920 46
2009-08-05 10:06 51°21.383 3°8.661 3.8 18 22.8 101920 48
2009-08-05 10:07 51°21.412 3°8.741 3.6 17 22.8 101920 47
2009-08-05 10:08 51°21.443 3°8.821 3.7 22 22.9 101920 48
2009-08-05 10:09 51°21.474 3°8.901 3.7 21 22.9 101920 48
2009-08-05 10:10 51°21.505 3°8.981 3.9 23 22.9 101920 48
2009-08-05 10:11 51°21.536 3°9.063 4.6 24 22.8 101920 48
2009-08-05 10:12 51°21.568 3°9.145 4.4 25 22.8 101920 46
2009-08-05 10:13 51°21.6 3°9.228 4.3 25 22.8 101920 45
2009-08-05 10:14 51°21.633 3°9.313 4.1 30 23 101920 44
2009-08-05 10:15 51°21.667 3°9.399 4.5 28 23 101920 45
2009-08-05 10:16 51°21.701 3°9.485 3 26 23 101920 44
2009-08-05 10:17 51°21.728 3°9.567 2.7 21 23.1 101920 45
2009-08-05 10:18 51°21.748 3°9.639 4.3 22 23.1 101920 44
2009-08-05 10:19 51°21.756 3°9.708 4.9 357 23.2 101920 47
2009-08-05 10:20 51°21.722 3°9.763 5.8 309 23.1 101920 46
2009-08-05 10:21 51°21.67 3°9.71 5.2 300 23.2 101910 46
2009-08-05 10:22 51°21.657 3°9.653 3.3 302 23.2 101920 46
2009-08-05 10:23 51°21.659 3°9.618 5.1 301 23.2 101920 46
2009-08-05 10:24 51°21.663 3°9.595 4.8 309 23.2 101920 42
2009-08-05 10:25 51°21.667 3°9.582 4 300 23.3 101920 43
2009-08-05 10:26 51°21.673 3°9.575 4.4 302 23.4 101920 44
2009-08-05 10:27 51°21.679 3°9.573 4.7 307 23.4 101920 45
2009-08-05 10:28 51°21.683 3°9.548 4.4 301 23.4 101910 44
2009-08-05 10:29 51°21.68 3°9.483 5.4 309 23.4 101910 46
2009-08-05 10:30 51°21.676 3°9.387 3.4 308 23.4 101910 46
2009-08-05 10:31 51°21.671 3°9.287 4.2 301 23.4 101910 47
2009-08-05 10:32 51°21.654 3°9.201 4.2 302 23.3 101910 47
2009-08-05 10:33 51°21.628 3°9.126 4.7 300 23.2 101920 47
2009-08-05 10:34 51°21.592 3°9.068 5.3 306 23.2 101910 46
2009-08-05 10:35 51°21.548 3°9.018 5.8 300 23.3 101910 45
2009-08-05 10:36 51°21.505 3°8.967 5.7 302 23.3 101910 45
2009-08-05 10:37 51°21.465 3°8.911 5.6 302 23.3 101910 46
2009-08-05 10:38 51°21.425 3°8.856 5.5 301 23.3 101910 47
2009-08-05 10:39 51°21.385 3°8.799 4.5 302 23.2 101910 47
2009-08-05 10:40 51°21.346 3°8.744 4.8 309 23.2 101910 46
2009-08-05 10:41 51°21.307 3°8.69 4.8 301 23.3 101910 47
2009-08-05 10:42 51°21.27 3°8.635 3.3 302 23.3 101910 48
2009-08-05 10:43 51°21.234 3°8.579 4.4 300 23.2 101910 48
2009-08-05 10:44 51°21.2 3°8.523 5.4 307 23.1 101910 47
2009-08-05 10:45 51°21.165 3°8.468 5.6 301 23.1 101910 47
2009-08-05 10:46 51°21.136 3°8.408 4.1 300 23.2 101910 47
2009-08-05 10:47 51°21.115 3°8.34 4.8 307 23.3 101910 46
2009-08-05 10:48 51°21.111 3°8.265 4 301 23.3 101910 46
2009-08-05 10:49 51°21.132 3°8.198 1.6 59 23.4 101910 46
2009-08-05 10:50 51°21.164 3°8.166 1.9 54 23.4 101910 45
2009-08-05 10:51 51°21.195 3°8.156 0.1 57 23.3 101910 44
2009-08-05 10:52 51°21.224 3°8.155 2.3 54 23.6 101910 45
2009-08-05 10:53 51°21.248 3°8.16 2.5 51 23.6 101910 44
2009-08-05 10:54 51°21.268 3°8.17 2.7 53 23.5 101900 44
2009-08-05 10:55 51°21.286 3°8.182 3.5 58 23.5 101900 46
2009-08-05 10:56 51°21.302 3°8.199 3.3 60 23.5 101900 46
2009-08-05 10:57 51°21.318 3°8.219 3.3 54 23.5 101900 47
2009-08-05 10:58 51°21.332 3°8.238 2.8 61 23.4 101900 47
2009-08-05 10:59 51°21.359 3°8.187 2.1 310 23.5 101900 46
2009-08-05 11:00 51°21.347 3°8.044 3.3 307 23.6 101900 47
2009-08-05 11:01 51°21.314 3°7.87 3.2 306 23.6 101890 46
2009-08-05 11:02 51°21.324 3°7.71 0.7 302 23.6 101900 46
2009-08-05 11:03 51°21.4 3°7.67 1 34 23.7 101890 46
2009-08-05 11:04 51°21.462 3°7.659 1.6 44 23.8 101900 46
2009-08-05 11:05 51°21.516 3°7.668 2.9 36 23.8 101890 46
2009-08-05 11:06 51°21.574 3°7.713 1.9 23 23.8 101890 47
2009-08-05 11:07 51°21.628 3°7.784 2.6 13 23.7 101890 47
2009-08-05 11:08 51°21.664 3°7.86 3.5 10 23.5 101890 48
2009-08-05 11:09 51°21.69 3°7.931 4.4 10 23.4 101890 48
2009-08-05 11:10 51°21.713 3°7.997 4 12 23.3 101890 48
2009-08-05 11:11 51°21.736 3°8.061 3.4 15 23.3 101890 48
2009-08-05 11:12 51°21.76 3°8.125 3.2 17 23.3 101890 47
2009-08-05 11:13 51°21.787 3°8.194 3.3 15 23.4 101890 44
2009-08-05 11:14 51°21.816 3°8.267 2.2 15 23.5 101880 47
2009-08-05 11:15 51°21.846 3°8.341 2.2 14 23.5 101890 49
2009-08-05 11:16 51°21.881 3°8.413 2.2 22 23.4 101890 50
2009-08-05 11:17 51°21.918 3°8.486 2.6 25 23.3 101890 50
2009-08-05 11:18 51°21.954 3°8.561 3 21 23.2 101890 48
2009-08-05 11:19 51°21.988 3°8.64 2.2 11 23.2 101890 48
2009-08-05 11:20 51°22.02 3°8.722 3.8 10 23.3 101880 48
2009-08-05 11:21 51°22.05 3°8.807 4 12 23.3 101880 46
2009-08-05 11:22 51°22.078 3°8.893 4.1 13 23.5 101880 45
2009-08-05 11:23 51°22.104 3°8.979 4 12 23.6 101880 47
2009-08-05 11:24 51°22.128 3°9.062 2.7 4 23.6 101880 46
2009-08-05 11:25 51°22.144 3°9.143 4.3 359 23.6 101880 43
2009-08-05 11:26 51°22.155 3°9.225 3.7 346 23.7 101880 46
2009-08-05 11:27 51°22.147 3°9.318 3.3 329 23.7 101880 44
2009-08-05 11:28 51°22.138 3°9.387 3.4 303 24 101880 44
2009-08-05 11:29 51°22.133 3°9.441 2.9 301 24.2 101880 41
2009-08-05 11:30 51°22.132 3°9.485 3.1 249 24.4 101880 41
2009-08-05 11:31 51°22.136 3°9.519 2.3 308 24.5 101880 41
2009-08-05 11:32 51°22.164 3°9.501 -999 34 24.6 101890 40
2009-08-05 11:33 51°22.226 3°9.44 -999 304 24.7 101890 41
2009-08-05 11:34 51°22.313 3°9.265 0.5 326 24.9 101890 42
2009-08-05 11:35 51°22.411 3°9.048 2.9 328 24.9 101890 43
2009-08-05 11:36 51°22.513 3°8.831 2.7 331 24.8 101880 43
2009-08-05 11:37 51°22.613 3°8.613 3.1 327 24.6 101880 44
2009-08-05 11:38 51°22.715 3°8.397 3.3 328 24.5 101880 43
2009-08-05 11:39 51°22.814 3°8.179 3.3 324 24.5 101880 48
2009-08-05 11:40 51°22.91 3°7.963 3 306 24.2 101880 46
2009-08-05 11:41 51°23.006 3°7.749 3.3 326 24.1 101880 47
2009-08-05 11:42 51°23.101 3°7.533 3 326 24 101880 49
2009-08-05 11:43 51°23.198 3°7.316 3.5 328 23.8 101880 49
2009-08-05 11:44 51°23.296 3°7.098 3.3 328 23.7 101880 49
2009-08-05 11:45 51°23.371 3°6.866 3.5 329 23.6 101880 49
2009-08-05 11:46 51°23.436 3°6.628 3.3 337 23.5 101880 51
2009-08-05 11:47 51°23.502 3°6.392 3.9 335 23.3 101880 50
2009-08-05 11:48 51°23.569 3°6.156 3.3 335 23.2 101870 50
2009-08-05 11:49 51°23.634 3°5.918 4.3 336 23.2 101880 50
2009-08-05 11:50 51°23.699 3°5.679 4.1 337 23.2 101880 51
2009-08-05 11:51 51°23.764 3°5.438 3.2 336 23.1 101880 53
2009-08-05 11:52 51°23.814 3°5.188 3.1 334 23 101880 52
2009-08-05 11:53 51°23.861 3°4.935 3.2 334 23 101880 51
2009-08-05 11:54 51°23.907 3°4.681 3.6 333 22.9 101880 50
2009-08-05 11:55 51°23.952 3°4.43 4.1 335 22.9 101880 49
2009-08-05 11:56 51°24 3°4.18 4.5 332 22.9 101880 51
2009-08-05 11:57 51°24.049 3°3.931 4.4 333 22.8 101880 50
2009-08-05 11:58 51°24.101 3°3.685 4.4 333 22.9 101880 52
2009-08-05 11:59 51°24.215 3°3.488 5.1 337 22.8 101880 51
2009-08-05 12:00 51°24.353 3°3.308 4.6 336 22.8 101870 54
2009-08-05 12:01 51°24.489 3°3.124 4.8 335 22.5 101880 54
2009-08-05 12:02 51°24.624 3°2.937 5.4 334 22.4 101870 53
2009-08-05 12:03 51°24.762 3°2.75 5.8 335 22.4 101870 53
2009-08-05 12:04 51°24.902 3°2.562 4.8 334 22.5 101870 52
2009-08-05 12:05 51°25.042 3°2.373 4.9 336 22.5 101880 52
2009-08-05 12:06 51°25.181 3°2.183 5.2 333 22.5 101880 52
2009-08-05 12:07 51°25.32 3°1.993 4.8 335 22.5 101880 51
2009-08-05 12:08 51°25.458 3°1.802 5.6 336 22.5 101880 52
2009-08-05 12:09 51°25.596 3°1.609 5.8 339 22.5 101880 53
2009-08-05 12:10 51°25.736 3°1.417 4.8 336 22.5 101870 55
2009-08-05 12:11 51°25.877 3°1.226 5.8 335 22.4 101870 51
2009-08-05 12:12 51°26.019 3°1.033 5.3 337 22.5 101880 51
2009-08-05 12:13 51°26.156 3°0.831 5.6 337 22.5 101880 52
2009-08-05 12:14 51°26.294 3°0.627 5.5 337 22.5 101880 52
2009-08-05 12:15 51°26.437 3°0.425 5.6 340 22.5 101880 53
2009-08-05 12:16 51°26.584 3°0.221 7 338 22.5 101880 54
2009-08-05 12:17 51°26.731 3°0.012 7.1 337 22.5 101880 55
2009-08-05 12:18 51°26.878 2°59.801 6.4 336 22.4 101880 55
2009-08-05 12:19 51°27.031 2°59.596 6.7 336 22.3 101870 54
2009-08-05 12:20 51°27.185 2°59.391 5.6 338 22.3 101880 54
2009-08-05 12:21 51°27.325 2°59.169 6.2 337 22.3 101880 53
2009-08-05 12:22 51°27.474 2°58.969 5.7 339 22.4 101880 52
2009-08-05 12:23 51°27.624 2°58.778 5.8 339 22.4 101880 52
2009-08-05 12:24 51°27.772 2°58.585 4.7 341 22.4 101880 52
2009-08-05 12:25 51°27.927 2°58.402 5.3 342 22.4 101880 56
2009-08-05 12:26 51°28.104 2°58.263 5.6 343 22.2 101880 56
2009-08-05 12:27 51°28.289 2°58.134 6.2 342 22.1 101880 56
2009-08-05 12:28 51°28.476 2°58.004 5.2 341 22 101880 57
2009-08-05 12:29 51°28.661 2°57.873 5.6 343 22 101870 57
2009-08-05 12:30 51°28.725 2°57.643 3.5 333 21.9 101880 56
2009-08-05 12:31 51°28.707 2°57.377 3.5 333 21.8 101880 55
2009-08-05 12:32 51°28.686 2°57.109 4.5 328 21.9 101880 55
2009-08-05 12:33 51°28.608 2°56.887 3.8 301 21.9 101880 55
2009-08-05 12:34 51°28.505 2°56.689 3.8 325 22 101880 56
2009-08-05 12:35 51°28.408 2°56.48 3.7 327 21.9 101880 56
2009-08-05 12:36 51°28.31 2°56.273 5.7 328 21.8 101880 53
2009-08-05 12:37 51°28.216 2°56.061 5.1 329 21.9 101880 51
2009-08-05 12:38 51°28.122 2°55.848 6.1 329 22 101880 54
2009-08-05 12:39 51°28.031 2°55.633 5.3 328 21.9 101880 52
2009-08-05 12:40 51°27.939 2°55.42 4.9 303 21.9 101880 51
2009-08-05 12:41 51°27.849 2°55.207 6 327 22.1 101880 50
2009-08-05 12:42 51°27.758 2°54.995 4.6 328 22.2 101880 51
2009-08-05 12:43 51°27.662 2°54.79 5.7 301 22.2 101880 54
2009-08-05 12:44 51°27.564 2°54.589 4.7 328 22.1 101890 55
2009-08-05 12:45 51°27.463 2°54.391 5.4 328 22 101880 55
2009-08-05 12:46 51°27.362 2°54.198 4.6 327 21.9 101880 57
2009-08-05 12:47 51°27.264 2°54.003 5.7 327 21.7 101880 55
2009-08-05 12:48 51°27.166 2°53.806 5 302 21.6 101880 53
2009-08-05 12:49 51°27.058 2°53.623 5.1 326 21.7 101880 53
2009-08-05 12:50 51°26.952 2°53.435 6.1 326 21.8 101880 52
2009-08-05 12:51 51°26.855 2°53.232 4.8 301 21.9 101880 52
2009-08-05 12:52 51°26.766 2°53.018 5.9 301 22 101880 52
2009-08-05 12:53 51°26.679 2°52.803 4.7 303 22 101880 51
2009-08-05 12:54 51°26.592 2°52.589 4.7 302 22.1 101880 51
2009-08-05 12:55 51°26.504 2°52.374 4.9 301 22.2 101880 52
2009-08-05 12:56 51°26.414 2°52.163 4.4 323 22.2 101880 54
2009-08-05 12:57 51°26.324 2°51.953 5.1 302 22.1 101880 54
2009-08-05 12:58 51°26.252 2°51.723 4.3 325 22.1 101880 54
2009-08-05 12:59 51°26.174 2°51.497 4.9 324 22.1 101870 55
2009-08-05 13:00 51°26.089 2°51.278 5.1 304 22 101880 55
2009-08-05 13:01 51°26.009 2°51.058 4.4 303 22 101880 56
2009-08-05 13:02 51°25.936 2°50.829 4 301 22 101880 56
2009-08-05 13:03 51°25.874 2°50.592 4.2 301 22 101870 55
2009-08-05 13:04 51°25.814 2°50.353 4.6 301 22 101880 56
2009-08-05 13:05 51°25.752 2°50.114 4.8 299 22 101880 56
2009-08-05 13:06 51°25.691 2°49.877 4.1 325 22 101880 55
2009-08-05 13:07 51°25.63 2°49.639 4.1 305 22 101880 54
2009-08-05 13:08 51°25.565 2°49.404 5.5 301 22 101880 53
2009-08-05 13:09 51°25.502 2°49.169 4.5 302 22 101870 52
2009-08-05 13:10 51°25.442 2°48.931 5.2 303 22.1 101880 52
2009-08-05 13:11 51°25.384 2°48.69 4.5 326 22.2 101880 51
2009-08-05 13:12 51°25.323 2°48.45 4.5 325 22.3 101880 50
2009-08-05 13:13 51°25.262 2°48.21 4.5 326 22.3 101880 50
2009-08-05 13:14 51°25.203 2°47.967 5.2 327 22.3 101880 51
2009-08-05 13:15 51°25.141 2°47.724 5.3 326 22.3 101870 50
2009-08-05 13:16 51°25.078 2°47.482 5.1 301 22.3 101870 51
2009-08-05 13:17 51°25.011 2°47.236 4.9 302 22.2 101880 51
2009-08-05 13:18 51°24.947 2°46.995 4.3 326 22.2 101880 53
2009-08-05 13:19 51°24.882 2°46.752 4.5 299 22.2 101880 55
2009-08-05 13:20 51°24.819 2°46.504 4.9 301 22.1 101880 55
2009-08-05 13:21 51°24.757 2°46.256 4.8 326 22 101880 57
2009-08-05 13:22 51°24.695 2°46.008 4.8 302 21.9 101880 57
2009-08-05 13:23 51°24.632 2°45.763 4.7 300 21.7 101880 57
2009-08-05 13:24 51°24.572 2°45.516 4.7 300 21.6 101870 57
2009-08-05 13:25 51°24.517 2°45.261 4.7 300 21.5 101870 57
2009-08-05 13:26 51°24.465 2°45.003 5 327 21.5 101880 57
2009-08-05 13:27 51°24.404 2°44.753 4.6 300 21.5 101880 58
2009-08-05 13:28 51°24.335 2°44.507 5.3 302 21.4 101880 57
2009-08-05 13:29 51°24.258 2°44.273 4.3 326 21.3 101880 57
2009-08-05 13:30 51°24.171 2°44.053 4.2 301 21.2 101880 57
2009-08-05 13:31 51°24.07 2°43.838 3.8 301 21.2 101880 56
2009-08-05 13:32 51°23.985 2°43.633 1.9 303 21.2 101870 57
2009-08-05 13:33 51°24.018 2°43.537 2.4 358 21.2 101880 57
2009-08-05 13:34 51°24.099 2°43.591 4.6 340 21.1 101880 57
2009-08-05 13:35 51°24.206 2°43.776 7.2 332 21.1 101870 57
2009-08-05 13:36 51°24.303 2°44.07 7.3 332 21 101860 56
2009-08-05 13:37 51°24.386 2°44.392 7.6 333 21.1 101860 56
2009-08-05 13:38 51°24.471 2°44.712 7.6 333 21.2 101860 58
2009-08-05 13:39 51°24.556 2°45.03 8.4 334 21.2 101860 58
2009-08-05 13:40 51°24.632 2°45.354 7.3 333 21.1 101860 57
2009-08-05 13:41 51°24.694 2°45.653 5.7 332 20.9 101860 55
2009-08-05 13:42 51°24.728 2°45.827 3.2 330 21 101870 56
2009-08-05 13:43 51°24.745 2°45.948 3.1 328 21.2 101870 56
2009-08-05 13:44 51°24.75 2°46.045 3.3 327 21.4 101870 56
2009-08-05 13:45 51°24.749 2°46.147 3.3 300 21.3 101870 56
2009-08-05 13:46 51°24.75 2°46.246 3.1 302 21.3 101870 57
2009-08-05 13:47 51°24.758 2°46.343 3 329 21.3 101870 57
2009-08-05 13:48 51°24.768 2°46.437 2.5 331 21.3 101870 57
2009-08-05 13:49 51°24.783 2°46.527 2.6 334 21.2 101870 55
2009-08-05 13:50 51°24.806 2°46.614 2.6 335 21.1 101870 55
2009-08-05 13:51 51°24.834 2°46.7 2.6 337 21.2 101870 55
2009-08-05 13:52 51°24.869 2°46.782 2.4 340 21.3 101870 54
2009-08-05 13:53 51°24.906 2°46.861 2.1 341 21.4 101870 54
2009-08-05 13:54 51°24.942 2°46.94 1.9 342 21.4 101870 53
2009-08-05 13:55 51°24.977 2°47.02 2.4 343 21.5 101870 53
2009-08-05 13:56 51°25.015 2°47.099 2.5 342 21.5 101870 51
2009-08-05 13:57 51°25.053 2°47.178 2.2 342 21.6 101870 52
2009-08-05 13:58 51°25.09 2°47.26 2.3 343 21.7 101880 51
2009-08-05 13:59 51°25.125 2°47.335 2.2 343 21.7 101870 51
2009-08-05 14:00 51°25.157 2°47.402 3.9 342 21.8 101870 52
2009-08-05 14:01 51°25.189 2°47.464 3.6 342 21.9 101870 55
2009-08-05 14:02 51°25.221 2°47.528 4.1 343 21.7 101870 55
2009-08-05 14:03 51°25.253 2°47.595 3.4 343 21.4 101870 56
2009-08-05 14:04 51°25.286 2°47.662 3.8 343 21.1 101860 54
2009-08-05 14:05 51°25.317 2°47.731 3.2 342 21.1 101860 54
2009-08-05 14:06 51°25.344 2°47.802 3.1 337 21.3 101870 54
2009-08-05 14:07 51°25.366 2°47.875 3.6 336 21.4 101870 53
2009-08-05 14:08 51°25.386 2°47.95 3.9 335 21.6 101870 55
2009-08-05 14:09 51°25.396 2°48.021 3.2 316 21.5 101870 54
2009-08-05 14:10 51°25.389 2°48.075 3.8 236 21.5 101870 54
2009-08-05 14:11 51°25.376 2°48.109 3 250 21.5 101870 55
2009-08-05 14:12 51°25.371 2°48.132 3 252 21.5 101870 55
2009-08-05 14:13 51°25.373 2°48.156 3.1 248 21.5 101870 55
2009-08-05 14:14 51°25.377 2°48.183 3 244 21.5 101870 56
2009-08-05 14:15 51°25.386 2°48.21 3 241 21.5 101870 54
2009-08-05 14:16 51°25.393 2°48.237 3.6 237 21.4 101860 55
2009-08-05 14:17 51°25.351 2°48.297 5.3 38 21.4 101860 55
2009-08-05 14:18 51°25.245 2°48.398 6.3 317 21.3 101860 53
2009-08-05 14:19 51°25.101 2°48.481 8 318 21.4 101850 54
2009-08-05 14:20 51°24.938 2°48.59 7.5 321 21.5 101850 53
2009-08-05 14:21 51°24.78 2°48.741 8.9 322 21.5 101850 53
2009-08-05 14:22 51°24.61 2°48.861 8.7 321 21.6 101850 54
2009-08-05 14:23 51°24.441 2°48.961 7 320 21.7 101850 55
2009-08-05 14:24 51°24.27 2°49.059 6.7 320 21.7 101850 54
2009-08-05 14:25 51°24.099 2°49.162 7.8 320 21.7 101850 54
2009-08-05 14:26 51°23.929 2°49.265 6.4 322 21.7 101850 54
2009-08-05 14:27 51°23.755 2°49.367 6.5 321 21.7 101850 54
2009-08-05 14:28 51°23.588 2°49.467 6.6 321 21.8 101850 54
2009-08-05 14:29 51°23.418 2°49.57 6.6 320 21.8 101850 54
2009-08-05 14:30 51°23.247 2°49.671 7 322 21.8 101850 54
2009-08-05 14:31 51°23.078 2°49.766 6.9 320 21.8 101850 54
2009-08-05 14:32 51°22.904 2°49.8 5.7 319 21.9 101850 56
2009-08-05 14:33 51°22.727 2°49.807 6.6 318 22 101850 57
2009-08-05 14:34 51°22.548 2°49.816 7 318 21.9 101850 57
2009-08-05 14:35 51°22.368 2°49.832 7 319 21.9 101850 58
2009-08-05 14:36 51°22.186 2°49.848 5.8 320 21.8 101850 57
2009-08-05 14:37 51°22.004 2°49.869 6.7 320 21.7 101850 56
2009-08-05 14:38 51°21.822 2°49.881 6.4 322 21.6 101850 57
2009-08-05 14:39 51°21.641 2°49.944 6.7 322 21.5 101850 57
2009-08-05 14:40 51°21.467 2°50.021 6 322 21.5 101850 57
2009-08-05 14:41 51°21.29 2°50.101 7 321 21.4 101850 56
2009-08-05 14:42 51°21.117 2°50.192 6.2 322 21.4 101850 56
2009-08-05 14:43 51°20.946 2°50.306 7.3 319 21.4 101850 56
2009-08-05 14:44 51°20.781 2°50.415 6.2 318 21.5 101840 56
2009-08-05 14:45 51°20.609 2°50.521 6.9 318 21.6 101840 56
2009-08-05 14:46 51°20.438 2°50.619 6.7 320 21.6 101840 56
2009-08-05 14:47 51°20.268 2°50.71 6.6 321 21.7 101840 55
2009-08-05 14:48 51°20.095 2°50.802 6.6 320 21.8 101850 55
2009-08-05 14:49 51°19.921 2°50.892 6.6 321 21.9 101850 56
2009-08-05 14:50 51°19.746 2°50.98 6.3 321 21.9 101850 57
2009-08-05 14:51 51°19.571 2°51.069 7.1 323 21.8 101850 57
2009-08-05 14:52 51°19.397 2°51.16 6.3 322 21.8 101850 56
2009-08-05 14:53 51°19.226 2°51.259 6.1 323 21.8 101850 55
2009-08-05 14:54 51°19.054 2°51.347 6 320 21.8 101840 55
2009-08-05 14:55 51°18.88 2°51.422 6.6 321 21.8 101840 53
2009-08-05 14:56 51°18.705 2°51.487 6.1 318 21.9 101840 54
2009-08-05 14:57 51°18.528 2°51.548 6.9 320 21.9 101850 54
2009-08-05 14:58 51°18.352 2°51.611 6.9 320 21.9 101850 54
2009-08-05 14:59 51°18.177 2°51.676 6 322 21.9 101850 54
2009-08-05 15:00 51°18.014 2°51.796 6.6 321 22 101840 54
2009-08-05 15:01 51°17.847 2°51.92 5.9 320 22 101850 54
2009-08-05 15:02 51°17.68 2°52.03 6 320 22.1 101840 53
2009-08-05 15:03 51°17.513 2°52.135 5.9 319 22.2 101850 53
2009-08-05 15:04 51°17.341 2°52.246 6.9 316 22.1 101850 52
2009-08-05 15:05 51°17.175 2°52.353 5.8 317 22 101840 54
2009-08-05 15:06 51°17.011 2°52.482 6.1 317 21.9 101840 54
2009-08-05 15:07 51°16.849 2°52.62 7.1 316 21.8 101840 54
2009-08-05 15:08 51°16.689 2°52.76 7.2 40 21.7 101840 55
2009-08-05 15:09 51°16.524 2°52.897 7.2 316 21.7 101840 55
2009-08-05 15:10 51°16.362 2°53.033 7.1 315 21.7 101850 56
2009-08-05 15:11 51°16.199 2°53.174 7.2 316 21.5 101850 56
2009-08-05 15:12 51°16.04 2°53.307 7.1 317 21.6 101850 56
2009-08-05 15:13 51°15.878 2°53.44 7.4 315 21.6 101850 56
2009-08-05 15:14 51°15.717 2°53.575 6.2 316 21.6 101840 56
2009-08-05 15:15 51°15.555 2°53.711 7.4 32 21.6 101840 54
2009-08-05 15:16 51°15.394 2°53.847 6.5 33 21.7 101840 55
2009-08-05 15:17 51°15.233 2°53.984 6.1 34 21.7 101850 56
2009-08-05 15:18 51°15.084 2°54.094 6.4 37 21.6 101850 55
2009-08-05 15:19 51°14.911 2°54.185 5.6 40 21.6 101850 55
2009-08-05 15:20 51°14.736 2°54.263 5.4 34 21.6 101850 54
2009-08-05 15:21 51°14.576 2°54.385 6.7 317 21.6 101840 55
2009-08-05 15:22 51°14.48 2°54.6 7.3 319 21.7 101840 55
2009-08-05 15:23 51°14.404 2°54.855 8.4 323 21.7 101840 56
2009-08-05 15:24 51°14.322 2°55.104 8.4 317 21.8 101840 54
2009-08-05 15:25 51°14.218 2°55.313 6 322 22 101840 55
2009-08-05 15:26 51°14.077 2°55.447 6.6 322 22.1 101850 53
2009-08-05 15:27 51°13.942 2°55.542 6.1 319 22.5 101840 46
2009-08-05 15:28 51°13.849 2°55.611 6 321 23.3 101850 44
2009-08-05 15:29 51°13.771 2°55.686 5.2 331 23.9 101840 42
2009-08-05 15:30 51°13.723 2°55.773 4.7 319 24.3 101850 42
2009-08-05 15:31 51°13.687 2°55.869 4.5 328 24.6 101850 40
2009-08-05 15:32 51°13.667 2°55.944 3 321 24.8 101850 40
2009-08-05 15:33 51°13.662 2°55.956 1.6 240 25 101850 40